Akron, Michigan
Current Conditions -  °F | °C
As of 8:35 AM on Friday 19 Dec 2014 (Local Time) from KCFS Reporting Station
Clear Clear  
Wind Chill: 16°   Ceiling: Unl
Heat Index: 22°   Visibility: 10mi
Dew Point: 19°   Wind: 5mph
Humidity: 85%   Direction: 300°WNW
Pressure: 30.27"   Gusts: NA
Location:  43.57°N, 83.51°W
Report Text: KCFS 191335Z AUTO 30004KT 10SM CLR M05/M07 A3027 RMK AO2 T10541075
Loading
Personal Weather Stations






























Interactive Weather Map New forecast layout! Learn more

10-Day Weather Forecast

Advertisements
Track Severe Weather on mobile